Time;durP1;ratioP1;P1;durP2;ratioP2;P2;SDS_P1;SDS_P2;PMS_P1;PMS_P2;Temp;Humidity;BMP_temperature;BMP_pressure;BME280_temperature;BME280_humidity;BME280_pressure;Samples;Min_cycle;Max_cycle;Signal;HPM_P1;HPM_P2
2024/03/04 00:00:05;;;;;;;;;;;;;;;7.51;88.85;95514.47;30001;983;1876;-91
2024/03/04 00:00:40;;;;;;;;;;;;;;;7.51;89.19;95514.47;30001;983;1881;-91
2024/03/04 00:01:12;;;;;;;;;;;;;;;7.51;89.19;95511.78;30001;985;1855;-91
2024/03/04 00:01:43;;;;;;;;;;;;;;;7.50;88.75;95512.88;30001;983;1876;-92
2024/03/04 00:02:15;;;;;;;;;;;;;;;7.51;89.15;95517.97;30001;982;1881;-92
2024/03/04 00:02:49;;;;;;;;;;;;;;;7.52;89.20;95516.06;30001;982;1885;-94
2024/03/04 00:03:23;;;;;;;;;;;;;;;7.51;89.10;95514.47;30001;982;1881;-91
2024/03/04 00:03:54;;;;;;;;;;;;;;;7.51;89.19;95517.16;30001;982;1885;-91
2024/03/04 00:04:25;;;;;;;;;;;;;;;7.51;89.14;95519.87;30001;982;1881;-91
2024/03/04 00:04:56;;;;;;;;;;;;;;;7.50;89.34;95516.38;30001;982;1885;-91
2024/03/04 00:05:27;;;;;;;;;;;;;;;7.50;88.91;95516.38;30001;983;1880;-90
2024/03/04 00:06:04;;;;;;;;;;;;;;;7.51;89.18;95519.87;30001;987;1877;-92
2024/03/04 00:06:35;;;;;;;;;;;;;;;7.49;89.07;95512.06;30001;983;1872;-93
2024/03/04 00:07:18;;;;;;;;;;;;;;;7.51;88.82;95511.78;30001;983;1872;-91
2024/03/04 00:07:51;;;;;;;;;;;;;;;7.51;89.10;95517.16;30001;983;1885;-93
2024/03/04 00:08:22;;;;;;;;;;;;;;;7.51;89.39;95525.25;30001;987;1872;-91
2024/03/04 00:08:55;;;;;;;;;;;;;;;7.51;89.76;95517.16;30001;983;1885;-91
2024/03/04 00:09:26;;;;;;;;;;;;;;;7.51;89.53;95519.87;30001;982;1881;-92
2024/03/04 00:09:57;;;;;;;;;;;;;;;7.50;89.39;95515.56;30001;982;1872;-92
2024/03/04 00:10:29;;;;;;;;;;;;;;;7.50;89.43;95527.16;30001;984;1863;-91
2024/03/04 00:11:01;;;;;;;;;;;;;;;7.48;89.29;95520.47;30001;982;1886;-91
2024/03/04 00:11:32;;;;;;;;;;;;;;;7.48;89.75;95520.47;30001;982;1881;-90
2024/03/04 00:12:14;;;;;;;;;;;;;;;7.48;89.49;95528.56;30001;986;1876;-90
2024/03/04 00:12:52;;;;;;;;;;;;;;;7.48;89.65;95531.28;30001;987;1876;-90
2024/03/04 00:13:33;;;;;;;;;;;;;;;7.47;89.65;95524.28;30001;983;1872;-92
2024/03/04 00:14:10;;;;;;;;;;;;;;;7.46;89.80;95522.69;30001;983;1872;-92
2024/03/04 00:14:44;;;;;;;;;;;;;;;7.40;90.86;95533.59;30001;983;1885;-90
2024/03/04 00:15:15;;;;;;;;;;;;;;;7.32;91.55;95533.50;30001;983;1881;-92
2024/03/04 00:15:52;;;;;;;;;;;;;;;7.29;91.71;95524.12;30001;983;1885;-92
2024/03/04 00:16:36;;;;;;;;;;;;;;;7.29;91.60;95529.53;30001;983;1881;-92
2024/03/04 00:17:16;;;;;;;;;;;;;;;7.29;91.33;95521.44;30001;982;1886;-92
2024/03/04 00:18:05;;;;;;;;;;;;;;;7.28;91.44;95527.94;30001;982;1881;-91
2024/03/04 00:18:41;;;;;;;;;;;;;;;7.29;91.64;95532.22;30001;982;1873;-92
2024/03/04 00:19:20;;;;;;;;;;;;;;;7.30;91.97;95527.63;30001;982;1872;-91
2024/03/04 00:19:58;;;;;;;;;;;;;;;7.28;92.01;95533.31;30001;983;1885;-91
2024/03/04 00:21:39;;;;;;;;;;;;;;;7.28;92.17;95533.31;89994;930;10000;-90
2024/03/04 00:22:10;;;;;;;;;;;;;;;7.30;91.92;95536.50;30001;982;1869;-91
2024/03/04 00:22:46;;;;;;;;;;;;;;;7.33;91.49;95535.91;30001;982;1869;-91
2024/03/04 00:23:17;;;;;;;;;;;;;;;7.31;91.47;95524.63;30001;982;1882;-91
2024/03/04 00:23:49;;;;;;;;;;;;;;;7.31;91.56;95543.50;30001;982;1864;-90
2024/03/04 00:24:22;;;;;;;;;;;;;;;7.30;91.14;95536.50;30001;983;1872;-91
2024/03/04 00:24:53;;;;;;;;;;;;;;;7.30;91.14;95541.91;30001;986;1868;-89
2024/03/04 00:25:24;;;;;;;;;;;;;;;7.31;91.19;95538.12;30001;983;1881;-90
2024/03/04 00:25:56;;;;;;;;;;;;;;;7.30;90.92;95536.50;30001;983;1877;-90
2024/03/04 00:26:30;;;;;;;;;;;;;;;7.30;90.86;95547.31;30001;983;1881;-90
2024/03/04 00:27:26;;;;;;;;;;;;;;;7.29;90.82;95551.09;30001;962;1898;-90
2024/03/04 00:28:04;;;;;;;;;;;;;;;7.28;91.09;95554.91;30001;983;1877;-92
2024/03/04 00:28:35;;;;;;;;;;;;;;;7.27;90.80;95553.34;30001;982;1877;-91
2024/03/04 00:29:11;;;;;;;;;;;;;;;7.27;90.76;95550.66;30001;982;1868;-88
2024/03/04 00:29:42;;;;;;;;;;;;;;;7.28;90.90;95551.41;30001;982;1868;-91
2024/03/04 00:30:24;;;;;;;;;;;;;;;7.28;90.93;95557.59;30001;982;1882;-90
2024/03/04 00:30:59;;;;;;;;;;;;;;;7.28;91.08;95554.91;30001;986;1789;-91
2024/03/04 00:31:33;;;;;;;;;;;;;;;7.27;91.11;95561.44;30001;983;1798;-89
2024/03/04 00:32:08;;;;;;;;;;;;;;;7.26;91.07;95557.13;30001;983;1877;-91
2024/03/04 00:32:39;;;;;;;;;;;;;;;7.26;90.95;95556.34;30001;983;1788;-89
2024/03/04 00:33:10;;;;;;;;;;;;;;;7.24;90.78;95559.34;30001;987;1868;-88
2024/03/04 00:33:42;;;;;;;;;;;;;;;7.23;91.05;95552.34;30001;987;1873;-90
2024/03/04 00:34:17;;;;;;;;;;;;;;;7.22;90.91;95556.16;30001;985;1860;-92
2024/03/04 00:35:09;;;;;;;;;;;;;;;7.22;91.15;95561.53;30001;987;1869;-90
2024/03/04 00:35:41;;;;;;;;;;;;;;;7.21;91.48;95559.16;30001;987;1877;-92
2024/03/04 00:36:15;;;;;;;;;;;;;;;7.21;91.13;95554.56;30001;986;1876;-91
2024/03/04 00:37:10;;;;;;;;;;;;;;;7.22;91.53;95558.03;30001;982;1886;-91
2024/03/04 00:37:42;;;;;;;;;;;;;;;7.22;91.55;95563.44;30001;982;1882;-92
2024/03/04 00:38:13;;;;;;;;;;;;;;;7.19;91.88;95562.16;30001;983;1885;-91
2024/03/04 00:38:44;;;;;;;;;;;;;;;7.17;91.47;95569.75;30001;983;1881;-92
2024/03/04 00:39:17;;;;;;;;;;;;;;;7.14;92.11;95564.94;30001;983;1872;-93
2024/03/04 00:39:59;;;;;;;;;;;;;;;7.12;91.65;95556.34;30001;983;1873;-91
2024/03/04 00:40:31;;;;;;;;;;;;;;;7.11;91.96;95570.16;30001;987;1877;-89
2024/03/04 00:41:09;;;;;;;;;;;;;;;7.11;92.05;95564.75;30001;983;1885;-91
2024/03/04 00:41:44;;;;;;;;;;;;;;;7.09;91.78;95567.75;30001;987;1873;-92
2024/03/04 00:42:18;;;;;;;;;;;;;;;7.09;92.21;95564.25;30001;983;1882;-91
2024/03/04 00:42:51;;;;;;;;;;;;;;;7.08;92.11;95566.16;30001;983;1881;-91
2024/03/04 00:43:30;;;;;;;;;;;;;;;7.08;92.27;95566.16;30001;986;1877;-91
2024/03/04 00:44:08;;;;;;;;;;;;;;;7.06;92.41;95563.75;30001;987;1877;-91
2024/03/04 00:44:42;;;;;;;;;;;;;;;7.07;92.61;95568.06;30001;982;1873;-91
2024/03/04 00:45:22;;;;;;;;;;;;;;;7.07;92.55;95569.94;30001;982;1873;-89
2024/03/04 00:45:57;;;;;;;;;;;;;;;7.08;92.61;95571.56;30001;983;1885;-90
2024/03/04 00:46:31;;;;;;;;;;;;;;;7.05;93.12;95569.44;30001;983;1881;-90
2024/03/04 00:47:03;;;;;;;;;;;;;;;7.03;93.24;95569.75;30001;983;1885;-91
2024/03/04 00:47:34;;;;;;;;;;;;;;;7.00;92.87;95558.78;30001;983;1881;-91
2024/03/04 00:48:08;;;;;;;;;;;;;;;7.00;93.04;95564.16;30001;983;1885;-90
2024/03/04 00:48:47;;;;;;;;;;;;;;;6.99;92.99;95563.38;30001;987;1873;-93
2024/03/04 00:49:19;;;;;;;;;;;;;;;6.97;93.49;95562.06;30001;983;1886;-91
2024/03/04 00:49:56;;;;;;;;;;;;;;;6.94;93.77;95560.78;30001;983;1869;-91
2024/03/04 00:50:41;;;;;;;;;;;;;;;6.91;93.40;95566.00;30001;982;1877;-92
2024/03/04 00:51:16;;;;;;;;;;;;;;;6.91;93.76;95560.59;30001;982;1882;-91
2024/03/04 00:51:46;;;;;;;;;;;;;;;6.89;94.12;95563.59;30001;986;1877;-91
2024/03/04 00:52:18;;;;;;;;;;;;;;;6.88;93.89;95566.59;30001;982;1886;-91
2024/03/04 00:52:49;;;;;;;;;;;;;;;6.88;93.94;95558.50;30001;982;1793;-91
2024/03/04 00:53:23;;;;;;;;;;;;;;;6.85;94.15;95564.50;30001;985;1877;-91
2024/03/04 00:53:58;;;;;;;;;;;;;;;6.84;94.16;95565.59;30001;983;1885;-90
2024/03/04 00:54:43;;;;;;;;;;;;;;;6.83;93.83;95569.41;30001;983;1881;-91
2024/03/04 00:55:17;;;;;;;;;;;;;;;6.82;94.00;95565.91;30001;983;1863;-92
2024/03/04 00:55:52;;;;;;;;;;;;;;;6.81;94.13;95572.37;30001;985;1868;-94
2024/03/04 00:56:23;;;;;;;;;;;;;;;6.79;94.03;95568.41;30001;983;1885;-91
2024/03/04 00:56:55;;;;;;;;;;;;;;;6.79;93.67;95571.09;30001;983;1881;-89
2024/03/04 00:57:26;;;;;;;;;;;;;;;6.80;93.84;95570.00;30001;983;1793;-90
2024/03/04 00:58:02;;;;;;;;;;;;;;;6.78;93.52;95578.38;30001;982;1881;-92
2024/03/04 00:58:33;;;;;;;;;;;;;;;6.82;93.47;95578.56;30001;982;1886;-91
2024/03/04 00:59:07;;;;;;;;;;;;;;;6.80;93.61;95576.19;30001;982;1882;-90
2024/03/04 00:59:42;;;;;;;;;;;;;;;6.83;93.65;95585.56;30001;982;1886;-91
2024/03/04 01:00:17;;;;;;;;;;;;;;;6.83;93.76;95580.19;30001;982;1882;-90
2024/03/04 01:00:49;;;;;;;;;;;;;;;6.82;93.83;95581.28;30001;983;1872;-93
2024/03/04 01:01:23;;;;;;;;;;;;;;;6.80;93.26;95580.78;30001;983;1872;-93
2024/03/04 01:01:58;;;;;;;;;;;;;;;6.81;93.49;95582.38;30001;983;1885;-92
2024/03/04 01:02:29;;;;;;;;;;;;;;;6.81;93.42;95583.16;30001;983;1881;-92
2024/03/04 01:03:27;;;;;;;;;;;;;;;6.82;93.96;95592.06;30001;983;1885;-92
2024/03/04 01:04:16;;;;;;;;;;;;;;;6.81;93.64;95590.47;30001;983;1877;-93
2024/03/04 01:05:10;;;;;;;;;;;;;;;6.82;94.40;95590.16;30001;987;1877;-91
2024/03/04 01:06:07;;;;;;;;;;;;;;;6.85;94.33;95588.75;30001;982;1886;-91
2024/03/04 01:07:09;;;;;;;;;;;;;;;6.86;94.68;95585.78;30001;987;1850;-91
2024/03/04 01:07:48;;;;;;;;;;;;;;;6.87;94.32;95586.56;30001;982;1869;-93
2024/03/04 01:08:42;;;;;;;;;;;;;;;6.86;94.55;95584.97;30001;987;1868;-92
2024/03/04 01:10:05;;;;;;;;;;;;;;;6.87;95.01;95589.25;30001;985;1860;-92
2024/03/04 01:10:44;;;;;;;;;;;;;;;6.88;94.92;95593.56;30001;987;1855;-91
2024/03/04 01:11:19;;;;;;;;;;;;;;;6.87;95.01;95589.25;30001;983;1881;-92
2024/03/04 01:11:50;;;;;;;;;;;;;;;6.88;94.69;95588.16;30001;983;1864;-92
2024/03/04 01:12:23;;;;;;;;;;;;;;;6.87;94.88;95589.25;30001;983;1873;-91
2024/03/04 01:13:02;;;;;;;;;;;;;;;6.87;95.20;95586.56;30001;982;1877;-90
2024/03/04 01:13:37;;;;;;;;;;;;;;;6.85;95.32;95586.88;30001;982;1881;-93
2024/03/04 01:14:22;;;;;;;;;;;;;;;6.86;95.32;95595.75;30001;987;1868;-92
2024/03/04 01:14:56;;;;;;;;;;;;;;;6.88;95.05;95593.56;30001;982;1882;-91
2024/03/04 01:15:29;;;;;;;;;;;;;;;6.88;95.36;95588.16;30001;987;1868;-91
2024/03/04 01:16:01;;;;;;;;;;;;;;;6.88;95.07;95598.94;30001;983;1881;-91
2024/03/04 01:16:33;;;;;;;;;;;;;;;6.90;95.25;95596.75;30001;983;1877;-89
2024/03/04 01:17:16;;;;;;;;;;;;;;;6.91;94.70;95592.97;30001;983;1868;-91
2024/03/04 01:17:52;;;;;;;;;;;;;;;6.92;94.47;95599.94;30001;986;1860;-90
2024/03/04 01:18:24;;;;;;;;;;;;;;;6.93;94.18;95601.56;30001;985;1873;-91
2024/03/04 01:18:56;;;;;;;;;;;;;;;6.94;94.22;95603.13;30001;983;1881;-91
2024/03/04 01:19:33;;;;;;;;;;;;;;;6.94;93.80;95600.41;30001;983;1877;-90
2024/03/04 01:20:20;;;;;;;;;;;;;;;6.95;93.79;95610.09;30001;986;1872;-93
2024/03/04 01:20:54;;;;;;;;;;;;;;;6.97;93.47;95605.22;30001;986;1872;-91
2024/03/04 01:21:25;;;;;;;;;;;;;;;6.97;93.63;95607.91;30001;982;1882;-91
2024/03/04 01:21:57;;;;;;;;;;;;;;;6.96;93.69;95611.72;30001;982;1877;-90
2024/03/04 01:22:43;;;;;;;;;;;;;;;6.96;93.20;95611.72;30001;982;1868;-91
2024/03/04 01:23:20;;;;;;;;;;;;;;;6.94;93.36;95614.69;30001;983;1867;-90
2024/03/04 01:23:53;;;;;;;;;;;;;;;6.94;93.63;95613.91;30001;983;1881;-90
2024/03/04 01:24:26;;;;;;;;;;;;;;;6.94;93.45;95613.91;30001;987;1868;-92
2024/03/04 01:24:58;;;;;;;;;;;;;;;6.93;93.62;95618.50;30001;985;1873;-93
2024/03/04 01:25:29;;;;;;;;;;;;;;;6.94;93.48;95616.59;30001;983;1881;-91
2024/03/04 01:26:00;;;;;;;;;;;;;;;6.94;93.49;95619.28;30001;983;1877;-90
2024/03/04 01:26:32;;;;;;;;;;;;;;;6.94;93.04;95622.00;30001;983;1881;-90
2024/03/04 01:27:07;;;;;;;;;;;;;;;6.94;93.18;95613.91;30001;983;1877;-90
2024/03/04 01:27:39;;;;;;;;;;;;;;;6.92;93.08;95622.31;30001;983;1868;-92
2024/03/04 01:28:11;;;;;;;;;;;;;;;6.91;92.73;95626.13;30001;982;1869;-90
2024/03/04 01:28:43;;;;;;;;;;;;;;;6.89;92.69;95622.91;30001;982;1882;-90
2024/03/04 01:29:14;;;;;;;;;;;;;;;6.90;92.47;95618.31;30001;982;1877;-90
2024/03/04 01:29:44;;;;;;;;;;;;;;;6.89;92.31;95627.50;30001;982;1882;-90
2024/03/04 01:30:15;;;;;;;;;;;;;;;6.88;92.23;95625.91;30001;983;1876;-91
2024/03/04 01:30:46;;;;;;;;;;;;;;;6.87;92.23;95624.31;30001;983;1881;-92
2024/03/04 01:31:18;;;;;;;;;;;;;;;6.87;92.40;95627.00;30001;983;1877;-91
2024/03/04 01:31:49;;;;;;;;;;;;;;;6.86;91.85;95617.31;30001;983;1881;-91
2024/03/04 01:32:24;;;;;;;;;;;;;;;6.85;92.06;95626.50;30001;983;1877;-90
2024/03/04 01:32:56;;;;;;;;;;;;;;;6.86;92.03;95622.72;30001;983;1868;-92
2024/03/04 01:33:29;;;;;;;;;;;;;;;6.86;91.91;95622.72;30001;987;1860;-92
2024/03/04 01:34:02;;;;;;;;;;;;;;;6.85;91.95;95623.81;30001;983;1881;-90
2024/03/04 01:34:35;;;;;;;;;;;;;;;6.83;92.78;95624.13;30001;983;1877;-91
2024/03/04 01:35:07;;;;;;;;;;;;;;;6.80;92.34;95623.91;30001;983;1881;-91
2024/03/04 01:35:38;;;;;;;;;;;;;;;6.79;92.49;95627.69;30001;985;1868;-90
2024/03/04 01:36:09;;;;;;;;;;;;;;;6.77;91.69;95629.91;30001;982;1882;-90
2024/03/04 01:36:41;;;;;;;;;;;;;;;6.77;91.95;95627.19;30001;982;1877;-93
2024/03/04 01:37:16;;;;;;;;;;;;;;;6.76;92.00;95629.09;30001;982;1882;-91
2024/03/04 01:37:46;;;;;;;;;;;;;;;6.75;92.13;95632.09;30001;983;1877;-92
2024/03/04 01:38:18;;;;;;;;;;;;;;;6.72;92.46;95623.50;30001;983;1868;-91
2024/03/04 01:38:49;;;;;;;;;;;;;;;6.72;92.51;95639.69;30001;983;1868;-92
2024/03/04 01:39:40;;;;;;;;;;;;;;;6.71;92.50;95635.38;30001;983;1881;-91
2024/03/04 01:40:13;;;;;;;;;;;;;;;6.71;91.85;95632.69;30001;983;1872;-91
2024/03/04 01:40:44;;;;;;;;;;;;;;;6.71;91.56;95631.88;30001;983;1881;-91
2024/03/04 01:41:17;;;;;;;;;;;;;;;6.70;91.85;95633.78;30001;987;1869;-90
2024/03/04 01:41:48;;;;;;;;;;;;;;;6.69;91.80;95639.47;30001;983;1881;-92
2024/03/04 01:42:19;;;;;;;;;;;;;;;6.69;91.38;95629.50;30001;983;1877;-94
2024/03/04 01:42:50;;;;;;;;;;;;;;;6.68;91.27;95638.66;30001;982;1882;-93
2024/03/04 01:43:21;;;;;;;;;;;;;;;6.67;90.90;95628.19;30001;982;1864;-90
2024/03/04 01:43:52;;;;;;;;;;;;;;;6.68;91.09;95630.59;30001;982;1873;-90
2024/03/04 01:44:30;;;;;;;;;;;;;;;6.66;91.15;95630.09;30001;986;1868;-90
2024/03/04 01:45:01;;;;;;;;;;;;;;;6.66;90.65;95630.09;30001;982;1882;-92
2024/03/04 01:45:33;;;;;;;;;;;;;;;6.67;90.82;95630.88;30001;983;1877;-92
2024/03/04 01:46:08;;;;;;;;;;;;;;;6.67;90.74;95631.69;30001;983;1881;-90
2024/03/04 01:46:41;;;;;;;;;;;;;;;6.68;90.96;95632.47;30001;983;1877;-91
2024/03/04 01:47:20;;;;;;;;;;;;;;;6.65;91.62;95638.47;30001;983;1881;-90
2024/03/04 01:47:58;;;;;;;;;;;;;;;6.60;91.86;95631.28;30001;983;1877;-91
2024/03/04 01:48:29;;;;;;;;;;;;;;;6.58;92.14;95635.38;30001;983;1868;-93
2024/03/04 01:49:00;;;;;;;;;;;;;;;6.56;91.81;95641.06;30001;983;1868;-89
2024/03/04 01:49:33;;;;;;;;;;;;;;;6.54;91.33;95637.88;30001;983;1881;-92
2024/03/04 01:50:08;;;;;;;;;;;;;;;6.52;91.89;95634.69;30001;983;1877;-90
2024/03/04 01:50:41;;;;;;;;;;;;;;;6.50;91.79;95642.25;30001;982;1882;-92
2024/03/04 01:51:16;;;;;;;;;;;;;;;6.49;92.09;95645.25;30001;986;1868;-91
2024/03/04 01:51:50;;;;;;;;;;;;;;;6.46;91.69;95640.44;30001;982;1882;-93
2024/03/04 01:52:22;;;;;;;;;;;;;;;6.44;92.25;95648.81;30001;982;1877;-91
2024/03/04 01:52:56;;;;;;;;;;;;;;;6.41;92.22;95644.03;30001;983;1881;-92
2024/03/04 01:53:28;;;;;;;;;;;;;;;6.38;92.19;95653.50;30001;983;1877;-90
2024/03/04 01:54:00;;;;;;;;;;;;;;;6.37;92.63;95648.41;30001;983;1868;-89
2024/03/04 01:54:32;;;;;;;;;;;;;;;6.34;93.02;95651.69;30001;983;1855;-91
2024/03/04 01:55:05;;;;;;;;;;;;;;;6.31;94.06;95649.59;30001;987;1873;-93
2024/03/04 01:55:43;;;;;;;;;;;;;;;6.30;93.90;95653.38;30001;983;1881;-93
2024/03/04 01:56:14;;;;;;;;;;;;;;;6.28;93.34;95652.88;30001;983;1877;-91
2024/03/04 01:56:49;;;;;;;;;;;;;;;6.26;93.62;95655.84;30001;983;1881;-92
2024/03/04 01:57:23;;;;;;;;;;;;;;;6.26;93.50;95653.16;30001;982;1877;-91
2024/03/04 01:57:55;;;;;;;;;;;;;;;6.25;93.59;95656.16;30001;968;1891;-91
2024/03/04 01:58:30;;;;;;;;;;;;;;;6.25;93.44;95656.94;30001;982;1881;-92
2024/03/04 01:59:02;;;;;;;;;;;;;;;6.26;93.74;95653.16;30001;982;1864;-91
2024/03/04 01:59:36;;;;;;;;;;;;;;;6.26;93.40;95653.16;30001;982;1873;-90
2024/03/04 02:00:11;;;;;;;;;;;;;;;6.27;93.38;95656.66;30001;982;1878;-92
2024/03/04 02:00:44;;;;;;;;;;;;;;;6.29;93.31;95662.53;30001;985;1873;-91
2024/03/04 02:01:15;;;;;;;;;;;;;;;6.29;93.32;95659.84;30001;983;1881;-90
2024/03/04 02:01:46;;;;;;;;;;;;;;;6.29;93.51;95662.53;30001;987;1868;-91
2024/03/04 02:02:18;;;;;;;;;;;;;;;6.29;93.71;95662.53;30001;983;1881;-91
2024/03/04 02:02:54;;;;;;;;;;;;;;;6.29;93.37;95663.34;30001;983;1877;-92
2024/03/04 02:03:27;;;;;;;;;;;;;;;6.30;93.68;95659.56;30001;983;1881;-91
2024/03/04 02:03:59;;;;;;;;;;;;;;;6.31;93.57;95666.53;30001;983;1877;-90
2024/03/04 02:04:33;;;;;;;;;;;;;;;6.31;93.39;95660.34;30001;983;1868;-93
2024/03/04 02:05:08;;;;;;;;;;;;;;;6.31;93.36;95663.06;30001;985;1860;-91
2024/03/04 02:05:41;;;;;;;;;;;;;;;6.31;94.10;95663.84;30001;982;1881;-91
2024/03/04 02:06:12;;;;;;;;;;;;;;;6.30;95.06;95666.84;30001;982;1877;-92
2024/03/04 02:06:47;;;;;;;;;;;;;;;6.29;95.15;95676.00;30001;982;1882;-93
2024/03/04 02:07:24;;;;;;;;;;;;;;;6.26;94.51;95669.31;30001;982;1878;-92
2024/03/04 02:07:56;;;;;;;;;;;;;;;6.26;94.70;95673.91;30001;983;1881;-93
2024/03/04 02:08:28;;;;;;;;;;;;;;;6.24;94.30;95670.72;30001;983;1876;-91
2024/03/04 02:08:59;;;;;;;;;;;;;;;6.23;94.99;95669.13;30001;983;1881;-92
2024/03/04 02:09:31;;;;;;;;;;;;;;;6.22;94.68;95672.94;30001;983;1864;-91
2024/03/04 02:10:05;;;;;;;;;;;;;;;6.21;94.65;95669.44;30001;983;1872;-91
2024/03/04 02:10:36;;;;;;;;;;;;;;;6.20;94.67;95670.53;30001;983;1877;-90
2024/03/04 02:11:07;;;;;;;;;;;;;;;6.20;95.02;95669.72;30001;986;1873;-91
2024/03/04 02:11:38;;;;;;;;;;;;;;;6.17;95.03;95671.09;30001;983;1882;-91
2024/03/04 02:12:13;;;;;;;;;;;;;;;6.17;95.18;95675.69;30001;982;1877;-90
2024/03/04 02:12:47;;;;;;;;;;;;;;;6.16;94.65;95674.09;30001;982;1882;-91
2024/03/04 02:13:23;;;;;;;;;;;;;;;6.16;94.81;95676.78;30001;982;1877;-89
2024/03/04 02:13:54;;;;;;;;;;;;;;;6.16;94.53;95668.72;30001;982;1882;-90
2024/03/04 02:14:26;;;;;;;;;;;;;;;6.13;95.39;95672.78;30001;985;1868;-90
2024/03/04 02:14:59;;;;;;;;;;;;;;;6.12;94.90;95670.38;30001;982;1869;-91
2024/03/04 02:15:40;;;;;;;;;;;;;;;6.13;94.79;95674.69;30001;983;1868;-91
2024/03/04 02:16:11;;;;;;;;;;;;;;;6.11;94.65;95666.09;30001;983;1881;-91
2024/03/04 02:16:41;;;;;;;;;;;;;;;6.12;94.53;95673.88;30001;983;1877;-92
2024/03/04 02:17:12;;;;;;;;;;;;;;;6.14;94.69;95671.69;30001;983;1881;-91
2024/03/04 02:17:45;;;;;;;;;;;;;;;6.16;94.86;95679.47;30001;983;1877;-92
2024/03/04 02:18:20;;;;;;;;;;;;;;;6.16;94.56;95674.09;30001;983;1881;-91
2024/03/04 02:18:51;;;;;;;;;;;;;;;6.17;95.35;95681.09;30001;983;1877;-92
2024/03/04 02:19:25;;;;;;;;;;;;;;;6.15;95.32;95677.88;30001;983;1881;-91
2024/03/04 02:20:08;;;;;;;;;;;;;;;6.14;94.81;95678.97;30001;982;1864;-91
2024/03/04 02:20:43;;;;;;;;;;;;;;;6.13;94.83;95680.88;30001;982;1873;-93
2024/03/04 02:21:16;;;;;;;;;;;;;;;6.13;95.83;95674.69;30001;982;1877;-91
2024/03/04 02:22:01;;;;;;;;;;;;;;;6.11;94.78;95682.25;30001;986;1882;-90
2024/03/04 02:22:32;;;;;;;;;;;;;;;6.12;94.93;95679.28;30001;982;1878;-90
2024/03/04 02:23:06;;;;;;;;;;;;;;;6.14;94.75;95681.66;30001;983;1881;-90
2024/03/04 02:23:37;;;;;;;;;;;;;;;6.15;94.95;95677.88;30001;986;1868;-90
2024/03/04 02:24:11;;;;;;;;;;;;;;;6.15;94.58;95681.38;30001;983;1881;-92
2024/03/04 02:24:42;;;;;;;;;;;;;;;6.18;94.66;95682.69;30001;983;1877;-93
2024/03/04 02:25:14;;;;;;;;;;;;;;;6.20;94.60;95677.81;30001;983;1868;-91
2024/03/04 02:25:52;;;;;;;;;;;;;;;6.19;95.64;95685.09;30001;983;1868;-90
2024/03/04 02:26:24;;;;;;;;;;;;;;;6.14;95.84;95685.16;30001;983;1881;-92
2024/03/04 02:26:59;;;;;;;;;;;;;;;6.12;95.88;95676.56;30001;983;1877;-91
2024/03/04 02:27:34;;;;;;;;;;;;;;;6.09;96.00;95679.06;30001;986;1872;-92
2024/03/04 02:28:28;;;;;;;;;;;;;;;6.05;96.56;95678.84;30001;985;1872;-91
2024/03/04 02:29:00;;;;;;;;;;;;;;;6.03;96.43;95684.50;30001;982;1877;-90
2024/03/04 02:29:33;;;;;;;;;;;;;;;6.02;96.71;95680.22;30001;982;1877;-91
2024/03/04 02:30:13;;;;;;;;;;;;;;;5.98;97.48;95679.19;30001;987;1872;-90
2024/03/04 02:30:50;;;;;;;;;;;;;;;5.95;98.53;95677.09;30001;985;1859;-91
2024/03/04 02:31:21;;;;;;;;;;;;;;;5.90;98.65;95673.69;30001;987;1868;-92
2024/03/04 02:31:55;;;;;;;;;;;;;;;5.88;98.80;95679.34;30001;983;1885;-91
2024/03/04 02:32:36;;;;;;;;;;;;;;;5.88;98.68;95684.72;30001;983;1881;-91
2024/03/04 02:33:10;;;;;;;;;;;;;;;5.88;98.49;95684.72;30001;986;1877;-91
2024/03/04 02:34:01;;;;;;;;;;;;;;;5.89;98.06;95680.94;30001;983;1885;-93
2024/03/04 02:34:47;;;;;;;;;;;;;;;5.90;98.15;95682.56;30001;983;1877;-93
2024/03/04 02:35:59;;;;;;;;;;;;;;;5.90;97.88;95687.13;30001;982;1886;-93
2024/03/04 02:36:31;;;;;;;;;;;;;;;5.90;98.20;95690.62;30001;986;1850;-90
2024/03/04 02:37:05;;;;;;;;;;;;;;;5.90;98.05;95687.94;30001;986;1864;-91
2024/03/04 02:37:37;;;;;;;;;;;;;;;5.91;98.25;95696.81;30001;983;1876;-91
2024/03/04 02:38:12;;;;;;;;;;;;;;;5.91;98.14;95694.91;30001;987;1868;-92
2024/03/04 02:39:03;;;;;;;;;;;;;;;5.94;98.33;95694.34;30001;983;1881;-91
2024/03/04 02:40:04;;;;;;;;;;;;;;;5.95;98.13;95695.94;30001;983;1877;-90
2024/03/04 02:40:39;;;;;;;;;;;;;;;5.96;98.23;95708.31;30001;985;1869;-91
2024/03/04 02:41:16;;;;;;;;;;;;;;;5.93;97.98;95703.50;30001;987;1873;-90
2024/03/04 02:41:50;;;;;;;;;;;;;;;5.95;98.24;95704.00;30001;985;1859;-91
2024/03/04 02:42:27;;;;;;;;;;;;;;;5.98;97.65;95699.94;30001;982;1873;-91
2024/03/04 02:43:03;;;;;;;;;;;;;;;6.01;97.52;95704.75;30001;982;1881;-92
2024/03/04 02:43:55;;;;;;;;;;;;;;;6.03;97.23;95708.75;30001;982;1886;-90
2024/03/04 02:44:39;;;;;;;;;;;;;;;5.99;97.39;95707.72;30001;982;1877;-90
2024/03/04 02:45:10;;;;;;;;;;;;;;;5.98;97.06;95713.41;30001;983;1885;-92
2024/03/04 02:45:56;;;;;;;;;;;;;;;5.97;97.07;95709.91;30001;962;1821;-91
2024/03/04 02:46:32;;;;;;;;;;;;;;;5.97;96.97;95712.59;30001;984;1868;-91
2024/03/04 02:47:05;;;;;;;;;;;;;;;5.91;97.22;95711.06;30001;985;1856;-90
2024/03/04 02:47:46;;;;;;;;;;;;;;;;;;;;;
2024/03/04 02:48:22;;;;;;;;;;;;;;;5.85;97.28;95714.94;30001;987;1864;-90
2024/03/04 02:48:59;;;;;;;;;;;;;;;5.83;97.64;95719.78;30001;985;1873;-92
2024/03/04 02:49:34;;;;;;;;;;;;;;;5.78;98.37;95717.16;30001;987;1873;-90
2024/03/04 02:50:27;;;;;;;;;;;;;;;5.74;99.32;95716.16;30001;982;1881;-90
2024/03/04 02:51:02;;;;;;;;;;;;;;;5.74;98.88;95713.47;30001;982;1827;-91
2024/03/04 02:52:00;;;;;;;;;;;;;;;5.76;98.79;95713.16;30001;986;1846;-93
2024/03/04 02:52:54;;;;;;;;;;;;;;;;;;;;;
2024/03/04 02:53:36;;;;;;;;;;;;;;;5.76;98.79;95713.97;30001;983;1881;-90
2024/03/04 02:54:11;;;;;;;;;;;;;;;5.78;98.71;95717.16;30001;986;1881;-92
2024/03/04 02:54:53;;;;;;;;;;;;;;;5.81;98.96;95716.59;30001;986;1877;-91
2024/03/04 02:55:47;;;;;;;;;;;;;;;5.85;98.73;95717.63;30002;987;1882;-91
2024/03/04 02:56:39;;;;;;;;;;;;;;;5.89;97.84;95715.94;30002;983;1881;-90
2024/03/04 02:57:21;;;;;;;;;;;;;;;5.91;97.66;95716.47;30002;983;1868;-90
2024/03/04 02:58:09;;;;;;;;;;;;;;;;;;;;;
2024/03/04 02:58:56;;;;;;;;;;;;;;;5.91;97.60;95711.06;30002;986;1872;-91
2024/03/04 02:59:29;;;;;;;;;;;;;;;5.90;97.58;95720.25;30002;982;1886;-90
2024/03/04 03:00:01;;;;;;;;;;;;;;;5.90;97.63;95712.16;30002;986;1872;-92
2024/03/04 03:00:39;;;;;;;;;;;;;;;5.88;97.71;95710.84;30002;983;1885;-91
2024/03/04 03:01:12;;;;;;;;;;;;;;;5.86;98.06;95713.03;30002;987;1872;-91
2024/03/04 03:01:49;;;;;;;;;;;;;;;5.84;98.18;95709.84;30002;983;1885;-91
2024/03/04 03:02:25;;;;;;;;;;;;;;;5.81;98.24;95713.09;30002;983;1868;-92
2024/03/04 03:03:07;;;;;;;;;;;;;;;5.79;98.29;95708.00;30002;983;1877;-93
2024/03/04 03:03:38;;;;;;;;;;;;;;;5.80;98.22;95709.59;30002;983;1881;-91
2024/03/04 03:04:12;;;;;;;;;;;;;;;5.79;97.81;95713.38;30002;982;1886;-91
2024/03/04 03:04:49;;;;;;;;;;;;;;;5.78;98.14;95717.16;30002;982;1881;-90
2024/03/04 03:05:31;;;;;;;;;;;;;;;5.72;98.42;95707.56;30002;982;1886;-90
2024/03/04 03:06:25;;;;;;;;;;;;;;;5.66;98.64;95708.72;30002;987;1872;-91
2024/03/04 03:07:04;;;;;;;;;;;;;;;5.66;98.73;95708.72;30001;311;1877;-54
2024/03/04 03:07:36;;;;;;;;;;;;;;;5.66;98.76;95708.72;30002;983;1859;-53
2024/03/04 03:08:07;;;;;;;;;;;;;;;5.65;98.80;95707.91;30002;967;1892;-55
2024/03/04 03:08:38;;;;;;;;;;;;;;;5.64;98.69;95708.22;30002;983;1881;-53
2024/03/04 03:09:11;;;;;;;;;;;;;;;5.62;98.49;95713.06;30002;983;1881;-53
2024/03/04 03:09:42;;;;;;;;;;;;;;;5.62;98.49;95713.06;30002;983;1881;-53
2024/03/04 03:10:13;;;;;;;;;;;;;;;5.62;98.40;95713.06;30002;983;1879;-53
2024/03/04 03:10:46;;;;;;;;;;;;;;;5.61;98.76;95714.16;30002;983;1881;-53
2024/03/04 03:11:17;;;;;;;;;;;;;;;5.59;98.88;95719.84;30002;983;1881;-54
2024/03/04 03:11:48;;;;;;;;;;;;;;;5.56;99.22;95731.19;30002;982;1881;-53
2024/03/04 03:12:20;;;;;;;;;;;;;;;5.55;99.64;95726.09;30002;982;1881;-54
2024/03/04 03:12:51;;;;;;;;;;;;;;;5.53;99.52;95722.91;30002;982;1859;-53
2024/03/04 03:13:22;;;;;;;;;;;;;;;5.51;99.43;95728.56;30002;982;1877;-53
2024/03/04 03:13:54;;;;;;;;;;;;;;;5.50;98.99;95726.97;30002;982;1881;-53
2024/03/04 03:14:25;;;;;;;;;;;;;;;5.51;98.45;95733.16;30002;982;1882;-68
2024/03/04 03:14:57;;;;;;;;;;;;;;;5.50;98.55;95731.56;30002;982;1882;-53
2024/03/04 03:15:28;;;;;;;;;;;;;;;5.50;98.45;95732.34;30002;983;1858;-53
2024/03/04 03:16:02;;;;;;;;;;;;;;;5.51;99.24;95733.16;30002;983;1876;-53